< < Back
Terminal Aerodrome Forecast


Current Version              Previous Versions:   1  2  3  4  5  6  7  8  9  

Terminal Aerodrome Forecast

654
FTUS42 KCAE 301732 AAC
TAFCAE
TAF AMD
KCAE 301732Z 3018/3118 05006KT P6SM SCT025 BKN050
      TEMPO 3019/3022 6SM -RA BKN022
     FM302200 07006KT P6SM VCSH BKN035 OVC050
     FM310300 VRB04KT P6SM OVC007
      TEMPO 3110/3114 4SM BR
     FM311600 09006KT P6SM BKN015 OVC040=

Latest METAR

891
SAUS80 KWBC 301700 RRA
MTRCAE
METAR KCAE 301656Z 07005KT 10SM -RA SCT023 BKN045 OVC130 26/18 A3014 RMK
AO2 RAE12B34 SLP203 P0000 T02560183


USA.gov is the U.S. government's official web portal to all federal, state and local government web resources and services.